Time;durP1;ratioP1;P1;durP2;ratioP2;P2;SDS_P1;SDS_P2;PMS_P1;PMS_P2;Temp;Humidity;BMP_temperature;BMP_pressure;BME280_temperature;BME280_humidity;BME280_pressure;Samples;Min_cycle;Max_cycle;Signal;HPM_P1;HPM_P2
2024/01/24 00:00:37;;;;;;;36.30;26.48;;;;;;;3.49;83.82;99930.06;4996303;28;20034;-66
2024/01/24 00:03:05;;;;;;;35.67;25.85;;;;;;;3.39;85.18;99929.63;4993984;28;20150;-68
2024/01/24 00:05:30;;;;;;;38.22;27.23;;;;;;;3.33;84.86;99921.34;4998382;28;20710;-68
2024/01/24 00:07:56;;;;;;;39.63;26.40;;;;;;;3.41;84.55;99911.56;5009719;28;20029;-69
2024/01/24 00:10:23;;;;;;;42.95;27.92;;;;;;;3.30;84.97;99911.19;5004500;28;20108;-66
2024/01/24 00:12:53;;;;;;;42.50;28.30;;;;;;;3.36;84.61;99926.34;5011935;28;20087;-67
2024/01/24 00:15:26;;;;;;;39.85;27.58;;;;;;;3.14;85.18;99931.56;4998619;28;20037;-66
2024/01/24 00:17:53;;;;;;;40.67;26.65;;;;;;;3.31;84.34;99931.69;5007737;28;20053;-68
2024/01/24 00:20:24;;;;;;;37.88;28.23;;;;;;;3.44;84.13;99940.53;5000294;28;20032;-66
2024/01/24 00:22:49;;;;;;;37.22;28.15;;;;;;;3.44;84.30;99945.69;5008140;28;20476;-68
2024/01/24 00:25:14;;;;;;;38.90;27.02;;;;;;;3.32;84.72;99948.78;5014748;28;20029;-66
2024/01/24 00:27:42;;;;;;;35.17;26.58;;;;;;;3.22;84.47;99948.34;5010657;28;20686;-69
2024/01/24 00:30:09;;;;;;;35.78;26.42;;;;;;;3.29;84.67;99951.50;4996011;28;20036;-68
2024/01/24 00:32:34;;;;;;;37.40;26.13;;;;;;;3.12;85.59;99951.38;4992569;28;20120;-67
2024/01/24 00:35:02;;;;;;;40.33;26.73;;;;;;;3.25;84.51;99955.13;5022614;28;20072;-67
2024/01/24 00:37:27;;;;;;;34.63;25.40;;;;;;;2.90;84.53;99895.72;4997859;28;20102;-69
2024/01/24 00:39:53;;;;;;;36.55;26.33;;;;;;;3.25;84.11;99939.69;4993765;28;20089;-66
2024/01/24 00:42:20;;;;;;;38.05;25.52;;;;;;;3.27;84.30;99925.84;5012100;28;20114;-67
2024/01/24 00:44:47;;;;;;;39.13;25.80;;;;;;;3.11;84.30;99906.84;4991044;28;20045;-66
2024/01/24 00:47:15;;;;;;;33.88;25.15;;;;;;;3.13;84.63;99923.03;5000217;28;20057;-70
2024/01/24 00:49:40;;;;;;;36.65;26.10;;;;;;;3.15;84.83;99916.09;5012484;28;20495;-67
2024/01/24 00:52:08;;;;;;;38.03;24.70;;;;;;;3.13;84.08;99919.63;4994462;28;20037;-70
2024/01/24 00:54:38;;;;;;;33.28;24.95;;;;;;;3.15;84.40;99910.94;4993354;28;20449;-66
2024/01/24 00:57:06;;;;;;;35.70;25.55;;;;;;;3.06;84.35;99929.34;5018432;28;20116;-69
2024/01/24 00:59:31;;;;;;;38.63;26.08;;;;;;;3.00;84.60;99933.00;4993035;28;20166;-67
2024/01/24 01:02:02;;;;;;;35.95;25.65;;;;;;;2.76;84.71;99932.28;4999243;28;20580;-68
2024/01/24 01:04:30;;;;;;;34.88;25.30;;;;;;;2.45;85.42;99886.47;4993966;28;20022;-68
2024/01/24 01:06:55;;;;;;;38.72;26.08;;;;;;;2.57;87.16;99931.34;4995539;28;20041;-68
2024/01/24 01:09:20;;;;;;;38.55;25.73;;;;;;;2.70;86.36;99932.53;5025749;28;20025;-70
2024/01/24 01:11:46;;;;;;;36.65;26.08;;;;;;;2.72;86.47;99935.88;4995899;28;20859;-69
2024/01/24 01:14:14;;;;;;;38.92;25.80;;;;;;;2.71;86.30;99936.78;5007429;28;20025;-66
2024/01/24 01:16:41;;;;;;;35.58;25.48;;;;;;;2.77;86.40;99910.00;5005513;28;20145;-67
2024/01/24 01:19:09;;;;;;;35.67;24.50;;;;;;;2.69;86.03;99918.03;4990820;28;20607;-69
2024/01/24 01:21:35;;;;;;;39.88;25.15;;;;;;;2.45;85.47;99871.06;5016840;28;20032;-68
2024/01/24 01:24:02;;;;;;;38.33;26.40;;;;;;;2.24;85.60;99886.41;4994798;28;20018;-67
2024/01/24 01:26:30;;;;;;;37.50;25.63;;;;;;;2.44;87.08;99936.97;4987219;28;20029;-67
2024/01/24 01:28:58;;;;;;;39.35;25.98;;;;;;;2.48;87.99;99932.56;5010632;28;20112;-68
2024/01/24 01:31:23;;;;;;;35.78;24.30;;;;;;;2.60;87.97;99915.84;5011354;28;20029;-67
2024/01/24 01:33:49;;;;;;;35.22;24.48;;;;;;;2.60;87.97;99908.13;5005420;28;20026;-69
2024/01/24 01:36:14;;;;;;;35.40;24.73;;;;;;;2.54;87.13;99904.09;5010654;28;20473;-69
2024/01/24 01:38:40;;;;;;;37.58;24.48;;;;;;;2.54;86.36;99916.91;4997292;28;20135;-67
2024/01/24 01:41:05;;;;;;;33.97;24.45;;;;;;;2.33;88.26;99915.19;4999839;28;20056;-72
2024/01/24 01:43:31;;;;;;;32.85;23.67;;;;;;;2.41;88.68;99926.84;5012780;28;20072;-69
2024/01/24 01:46:04;;;;;;;35.67;23.75;;;;;;;2.49;88.43;99926.53;4995287;28;20064;-67
2024/01/24 01:48:30;;;;;;;34.97;23.55;;;;;;;2.29;88.01;99868.28;5007811;28;20133;-69
2024/01/24 01:50:58;;;;;;;36.13;24.67;;;;;;;2.38;86.59;99865.34;5014078;28;20034;-68
2024/01/24 01:53:26;;;;;;;32.40;23.90;;;;;;;2.77;86.95;99922.84;5013816;28;20091;-67
2024/01/24 01:55:54;;;;;;;32.13;24.08;;;;;;;2.60;87.19;99926.09;5002591;28;20049;-66
2024/01/24 01:58:23;;;;;;;35.40;23.67;;;;;;;2.26;86.96;99853.00;5006680;28;20036;-66
2024/01/24 02:00:51;;;;;;;37.22;24.85;;;;;;;2.22;86.60;99838.63;4995874;28;20060;-67
2024/01/24 02:03:17;;;;;;;38.70;24.90;;;;;;;2.27;87.77;99895.75;5037661;28;20029;-67
2024/01/24 02:05:44;;;;;;;35.72;23.65;;;;;;;2.38;88.26;99885.06;4995604;28;20033;-66
2024/01/24 02:08:12;;;;;;;33.15;23.42;;;;;;;2.22;88.63;99846.31;4999161;28;20824;-66
2024/01/24 02:10:40;;;;;;;33.92;23.27;;;;;;;2.11;88.00;99836.50;4998948;28;20787;-67
2024/01/24 02:13:06;;;;;;;37.03;25.17;;;;;;;2.26;87.75;99850.44;4996787;28;20036;-69
2024/01/24 02:15:33;;;;;;;33.95;23.80;;;;;;;2.48;87.67;99879.50;4994008;28;20029;-69
2024/01/24 02:17:58;;;;;;;36.53;24.77;;;;;;;2.58;87.55;99891.94;5011389;28;20750;-70
2024/01/24 02:20:25;;;;;;;33.60;23.77;;;;;;;2.26;88.12;99887.22;5010661;28;20072;-67
2024/01/24 02:22:51;;;;;;;34.15;23.52;;;;;;;2.17;89.42;99861.91;5008192;28;20030;-66
2024/01/24 02:25:19;;;;;;;35.03;24.05;;;;;;;2.08;89.99;99873.38;4997733;28;20031;-68
2024/01/24 02:27:44;;;;;;;33.53;22.63;;;;;;;2.19;90.07;99890.94;4996289;28;20057;-68
2024/01/24 02:30:12;;;;;;;36.80;24.00;;;;;;;2.30;89.41;99865.66;4999744;28;20522;-65
2024/01/24 02:32:38;;;;;;;38.42;24.35;;;;;;;2.35;90.32;99886.00;5008382;28;20045;-67
2024/01/24 02:35:04;;;;;;;32.42;22.55;;;;;;;2.19;90.49;99878.09;5013004;28;20155;-67
2024/01/24 02:37:32;;;;;;;32.92;23.08;;;;;;;2.37;89.74;99884.19;5011947;28;20120;-66
2024/01/24 02:39:57;;;;;;;35.20;23.42;;;;;;;2.30;89.05;99869.97;5001915;28;20026;-67
2024/01/24 02:42:23;;;;;;;36.60;22.75;;;;;;;2.30;89.38;99872.53;5005868;28;20053;-66
2024/01/24 02:44:49;;;;;;;36.03;23.15;;;;;;;2.21;90.20;99893.41;5026290;28;20030;-67
2024/01/24 02:47:21;;;;;;;32.03;22.83;;;;;;;2.23;90.27;99892.47;4992028;28;20032;-67
2024/01/24 02:49:49;;;;;;;35.20;23.00;;;;;;;2.05;90.18;99882.94;4995542;28;20062;-69
2024/01/24 02:52:17;;;;;;;33.92;23.60;;;;;;;1.76;91.13;99866.09;4999246;28;20034;-67
2024/01/24 02:54:42;;;;;;;34.63;23.00;;;;;;;2.02;91.38;99877.91;4999859;28;20076;-68
2024/01/24 02:57:08;;;;;;;40.47;24.33;;;;;;;1.77;92.48;99863.47;5019842;28;20228;-67
2024/01/24 02:59:33;;;;;;;35.20;22.73;;;;;;;1.92;93.12;99851.78;5044201;28;20104;-70
2024/01/24 03:01:59;;;;;;;37.33;22.35;;;;;;;2.02;92.81;99847.13;5007686;28;20476;-68
2024/01/24 03:04:26;;;;;;;34.95;22.95;;;;;;;2.08;91.76;99828.91;4998199;28;20443;-70
2024/01/24 03:06:57;;;;;;;38.53;24.17;;;;;;;2.23;91.41;99837.75;5011062;28;20041;-69
2024/01/24 03:09:23;;;;;;;35.55;22.50;;;;;;;2.23;92.24;99843.69;5001952;28;20742;-68
2024/01/24 03:11:48;;;;;;;35.20;23.65;;;;;;;2.24;92.09;99847.94;5015737;28;20025;-67
2024/01/24 03:14:14;;;;;;;35.45;23.40;;;;;;;2.36;92.27;99850.91;5010065;28;20060;-65
2024/01/24 03:16:39;;;;;;;36.13;22.15;;;;;;;2.24;92.79;99837.66;5014202;28;20037;-65
2024/01/24 03:19:07;;;;;;;32.88;22.83;;;;;;;2.22;92.26;99843.75;5025982;28;20187;-69
2024/01/24 03:21:35;;;;;;;29.85;21.40;;;;;;;2.18;91.97;99835.34;5037533;28;20053;-65
2024/01/24 03:24:02;;;;;;;33.08;22.52;;;;;;;2.20;91.18;99827.59;5007030;28;20065;-66
2024/01/24 03:26:30;;;;;;;33.38;22.08;;;;;;;2.00;90.87;99766.81;4996131;28;20064;-69
2024/01/24 03:28:55;;;;;;;29.73;21.45;;;;;;;2.43;90.48;99826.66;4996060;28;20041;-66
2024/01/24 03:31:26;;;;;;;29.70;20.98;;;;;;;2.10;91.11;99824.56;5013614;28;20179;-69
2024/01/24 03:33:51;;;;;;;30.38;21.80;;;;;;;2.20;91.73;99812.19;5007541;28;20052;-65
2024/01/24 03:36:19;;;;;;;32.58;22.27;;;;;;;2.21;91.26;99816.41;5032388;28;20046;-67
2024/01/24 03:38:44;;;;;;;31.15;21.52;;;;;;;2.27;89.85;99821.31;5004011;28;20063;-66
2024/01/24 03:41:10;;;;;;;31.20;23.00;;;;;;;1.69;91.28;99781.69;4995656;28;20038;-68
2024/01/24 03:43:42;;;;;;;31.58;21.50;;;;;;;1.98;91.47;99809.66;5015190;28;20666;-68
2024/01/24 03:46:08;;;;;;;29.33;21.88;;;;;;;1.97;92.46;99824.22;5009020;28;20945;-67
2024/01/24 03:48:33;;;;;;;33.15;22.65;;;;;;;1.98;91.87;99814.78;5013913;28;20167;-66
2024/01/24 03:50:58;;;;;;;32.75;21.65;;;;;;;1.76;91.84;99759.22;5005717;28;20495;-65
2024/01/24 03:53:24;;;;;;;38.55;23.00;;;;;;;2.16;91.80;99803.78;5000209;28;20132;-65
2024/01/24 03:55:50;;;;;;;33.20;22.42;;;;;;;2.28;91.59;99810.13;5010074;28;20025;-66
2024/01/24 03:58:21;;;;;;;31.08;21.73;;;;;;;1.98;91.23;99764.31;5012337;28;20026;-65
2024/01/24 04:00:52;;;;;;;30.75;21.52;;;;;;;2.19;91.16;99795.13;5007573;28;20053;-67
2024/01/24 04:03:17;;;;;;;32.05;21.60;;;;;;;1.88;91.33;99743.34;4996823;28;20036;-67
2024/01/24 04:05:45;;;;;;;30.95;21.38;;;;;;;2.10;92.82;99799.75;5011603;28;20014;-66
2024/01/24 04:08:12;;;;;;;35.08;23.13;;;;;;;1.82;93.35;99758.13;4996735;28;20159;-66
2024/01/24 04:10:38;;;;;;;32.33;21.92;;;;;;;2.08;93.77;99791.28;5011583;28;20060;-65
2024/01/24 04:13:05;;;;;;;30.05;22.58;;;;;;;1.93;93.30;99748.25;4993237;28;20132;-66
2024/01/24 04:15:31;;;;;;;35.78;22.35;;;;;;;2.23;94.42;99776.97;4997337;28;20029;-69
2024/01/24 04:17:58;;;;;;;33.65;22.35;;;;;;;2.25;93.71;99780.31;5018594;28;20693;-68
2024/01/24 04:20:26;;;;;;;30.48;21.75;;;;;;;2.05;93.56;99737.50;5009966;28;20053;-66
2024/01/24 04:22:55;;;;;;;35.42;22.58;;;;;;;2.29;93.05;99769.00;4992054;28;20048;-68
2024/01/24 04:25:23;;;;;;;30.98;21.35;;;;;;;2.18;92.98;99760.94;5000060;28;20376;-68
2024/01/24 04:27:49;;;;;;;33.35;22.83;;;;;;;1.75;94.15;99721.63;4994774;28;20041;-66
2024/01/24 04:30:16;;;;;;;31.95;20.73;;;;;;;2.15;96.00;99768.75;5005568;28;20041;-66
2024/01/24 04:32:47;;;;;;;34.85;22.25;;;;;;;2.30;100.00;99769.88;4997144;28;20064;-68
2024/01/24 04:35:15;;;;;;;35.13;22.08;;;;;;;2.22;99.32;99766.78;5008047;28;20115;-68
2024/01/24 04:37:40;;;;;;;31.67;21.70;;;;;;;1.95;100.00;99702.84;5009587;28;20034;-67
2024/01/24 04:40:06;;;;;;;32.15;21.48;;;;;;;2.04;100.00;99694.78;5010312;28;20033;-67
2024/01/24 04:42:32;;;;;;;32.28;22.45;;;;;;;2.39;100.00;99746.38;4994610;28;20751;-70
2024/01/24 04:44:57;;;;;;;32.10;22.10;;;;;;;2.33;100.00;99754.31;5003136;28;20017;-69
2024/01/24 04:47:25;;;;;;;29.02;21.45;;;;;;;2.34;100.00;99753.44;5009162;28;20140;-68
2024/01/24 04:49:51;;;;;;;30.33;21.48;;;;;;;2.22;100.00;99706.00;5014624;28;20041;-64
2024/01/24 04:52:16;;;;;;;34.05;22.65;;;;;;;2.48;100.00;99745.97;5040086;28;20034;-67
2024/01/24 04:54:41;;;;;;;32.40;20.77;;;;;;;2.33;100.00;99705.56;4990900;28;20037;-67
2024/01/24 04:57:07;;;;;;;32.22;22.92;;;;;;;2.57;100.00;99754.19;4992579;28;20040;-68
2024/01/24 04:59:33;;;;;;;31.00;21.27;;;;;;;2.59;100.00;99755.78;5003708;28;20056;-66
2024/01/24 05:02:02;;;;;;;28.55;22.17;;;;;;;2.40;100.00;99729.22;4994627;28;20103;-66
2024/01/24 05:04:30;;;;;;;30.00;20.38;;;;;;;2.65;100.00;99765.78;5016034;28;20021;-69
2024/01/24 05:06:55;;;;;;;29.70;23.02;;;;;;;2.49;100.00;99770.75;5008008;28;20034;-67
2024/01/24 05:09:23;;;;;;;32.38;24.35;;;;;;;2.47;100.00;99776.84;5012562;28;20041;-68
2024/01/24 05:11:50;;;;;;;34.20;25.10;;;;;;;2.34;100.00;99786.81;4990230;28;20307;-68
2024/01/24 05:14:16;;;;;;;31.42;21.88;;;;;;;2.32;100.00;99788.59;5009004;28;20083;-67
2024/01/24 05:16:42;;;;;;;31.92;21.98;;;;;;;2.43;100.00;99785.59;5012801;28;20108;-66
2024/01/24 05:19:08;;;;;;;29.42;21.48;;;;;;;2.39;100.00;99777.19;4992832;28;20094;-70
2024/01/24 05:21:43;;;;;;;30.58;21.30;;;;;;;2.28;100.00;99784.47;4997270;28;20771;-68
2024/01/24 05:24:09;;;;;;;32.70;21.50;;;;;;;2.18;99.56;99767.81;5025895;28;20057;-68
2024/01/24 05:26:36;;;;;;;29.52;21.15;;;;;;;1.86;99.69;99718.63;5029555;28;20059;-66
2024/01/24 05:29:02;;;;;;;29.80;21.23;;;;;;;2.15;99.61;99775.63;4999995;28;20032;-66
2024/01/24 05:31:28;;;;;;;30.27;21.33;;;;;;;1.93;98.55;99720.03;5012492;28;20190;-66
2024/01/24 05:33:55;;;;;;;28.63;20.08;;;;;;;2.24;99.15;99770.09;5011317;28;20029;-68
2024/01/24 05:36:21;;;;;;;28.50;21.00;;;;;;;2.16;98.18;99767.88;5000425;28;20451;-68
2024/01/24 05:38:46;;;;;;;27.95;20.20;;;;;;;2.21;98.65;99777.91;5011713;28;20033;-68
2024/01/24 05:41:17;;;;;;;32.13;21.83;;;;;;;1.87;98.26;99728.00;5010171;28;20033;-66
2024/01/24 05:43:42;;;;;;;29.23;21.10;;;;;;;2.27;98.22;99772.56;5015360;28;20067;-67
2024/01/24 05:46:08;;;;;;;29.63;20.80;;;;;;;1.98;97.84;99719.88;5013537;28;20026;-67
2024/01/24 05:48:34;;;;;;;30.10;20.50;;;;;;;2.09;98.36;99769.84;5013539;28;20037;-67
2024/01/24 05:51:02;;;;;;;30.27;20.40;;;;;;;2.07;98.48;99769.06;4998737;28;20116;-67
2024/01/24 05:53:29;;;;;;;27.23;19.67;;;;;;;2.18;98.10;99783.19;5013992;28;20652;-68
2024/01/24 05:55:55;;;;;;;32.58;22.23;;;;;;;2.11;98.49;99770.59;5012189;28;20108;-69
2024/01/24 05:58:20;;;;;;;32.45;20.17;;;;;;;2.04;98.48;99776.88;4996901;28;20156;-68
2024/01/24 06:00:48;;;;;;;33.45;20.75;;;;;;;2.08;97.81;99781.00;5012171;28;20036;-67
2024/01/24 06:03:13;;;;;;;31.08;21.55;;;;;;;2.10;96.44;99770.69;5006870;28;20613;-66
2024/01/24 06:05:41;;;;;;;30.20;21.63;;;;;;;1.76;97.11;99719.91;5012761;28;20029;-67
2024/01/24 06:08:06;;;;;;;36.53;23.05;;;;;;;2.14;96.48;99773.97;5014977;28;20040;-65
2024/01/24 06:10:33;;;;;;;31.42;22.25;;;;;;;2.13;96.24;99762.03;5010076;28;20104;-66
2024/01/24 06:13:04;;;;;;;30.25;23.02;;;;;;;2.19;96.19;99761.75;5012650;28;20037;-65
2024/01/24 06:15:30;;;;;;;34.63;22.55;;;;;;;2.21;96.08;99776.22;5010231;28;21341;-68
2024/01/24 06:17:57;;;;;;;36.08;23.50;;;;;;;2.16;96.38;99778.13;4995132;28;20059;-71
2024/01/24 06:20:23;;;;;;;32.67;22.45;;;;;;;2.01;96.31;99771.91;4993175;28;20144;-67
2024/01/24 06:22:48;;;;;;;33.70;23.45;;;;;;;1.99;96.85;99760.00;5016851;28;20041;-66
2024/01/24 06:25:14;;;;;;;34.00;22.60;;;;;;;2.00;97.62;99777.06;5008384;28;20029;-67
2024/01/24 06:27:45;;;;;;;34.70;23.48;;;;;;;2.04;97.49;99766.63;5007392;28;20045;-69
2024/01/24 06:30:13;;;;;;;34.88;24.42;;;;;;;1.96;97.91;99750.72;5007633;28;20060;-67
2024/01/24 06:32:38;;;;;;;32.42;22.60;;;;;;;2.00;98.28;99764.25;5014924;28;20309;-69
2024/01/24 06:35:04;;;;;;;32.85;22.15;;;;;;;2.07;97.69;99756.22;4999234;28;20139;-69
2024/01/24 06:37:29;;;;;;;38.00;25.73;;;;;;;1.60;98.71;99723.06;4996323;28;20036;-67
2024/01/24 06:39:55;;;;;;;41.03;26.30;;;;;;;1.85;97.93;99766.53;5005915;28;20029;-66
2024/01/24 06:42:22;;;;;;;42.00;27.00;;;;;;;2.00;97.62;99771.94;4996054;28;20627;-68
2024/01/24 06:44:50;;;;;;;44.30;26.90;;;;;;;2.00;97.44;99765.06;4995826;28;20037;-67
2024/01/24 06:47:17;;;;;;;38.15;25.60;;;;;;;1.83;97.69;99781.16;5015259;28;20496;-69
2024/01/24 06:49:48;;;;;;;40.05;24.38;;;;;;;1.83;98.98;99793.97;5005444;28;20037;-69
2024/01/24 06:52:16;;;;;;;39.00;23.40;;;;;;;1.45;99.17;99746.75;5015497;28;20043;-68
2024/01/24 06:54:41;;;;;;;33.92;21.77;;;;;;;1.56;98.62;99733.53;5008351;28;20148;-70
2024/01/24 06:57:07;;;;;;;36.25;22.05;;;;;;;1.49;98.94;99717.53;5013252;28;21399;-68
2024/01/24 06:59:32;;;;;;;33.60;22.77;;;;;;;1.73;99.07;99754.19;5007857;28;20025;-69
2024/01/24 07:02:00;;;;;;;34.53;21.55;;;;;;;1.85;98.90;99761.41;5014713;28;20949;-68
2024/01/24 07:04:25;;;;;;;32.88;22.27;;;;;;;1.92;99.13;99754.31;5008085;28;21157;-68
2024/01/24 07:06:51;;;;;;;33.83;24.27;;;;;;;1.86;98.92;99757.97;4994394;28;20030;-71
2024/01/24 13:36:44;;;;;;;14.80;8.57;;;;;;;9.29;75.71;99372.59;5217596;22;20412;31
2024/01/24 13:39:14;;;;;;;11.07;7.88;;;;;;;9.08;79.49;99362.06;4998483;28;20161;-69
2024/01/24 13:41:40;;;;;;;13.98;8.88;;;;;;;8.92;77.25;99356.41;4969376;28;20042;-70
2024/01/24 13:44:06;;;;;;;12.40;7.82;;;;;;;9.08;74.06;99353.47;4989314;28;20037;-69
2024/01/24 13:46:31;;;;;;;13.52;8.32;;;;;;;9.32;69.84;99353.34;4980759;28;20034;-70
2024/01/24 13:48:56;;;;;;;13.52;8.35;;;;;;;9.59;69.14;99352.97;4988321;28;20030;-69
2024/01/24 13:51:22;;;;;;;11.25;7.47;;;;;;;9.46;69.17;99308.16;4982447;28;20034;-70
2024/01/24 13:55:39;;;;;;;10.48;7.63;;;;;;;9.39;68.89;99329.41;5033256;28;20945;-66
2024/01/24 14:01:10;;;;;;;11.05;6.57;;;;;;;9.37;70.92;99341.66;5089554;27;21132;-69
2024/01/24 14:39:37;;;;;;;18.10;10.88;;;;;;;8.98;75.58;99338.59;5030361;28;21238;-71
2024/01/24 14:42:07;;;;;;;28.25;17.50;;;;;;;9.17;73.68;99339.78;5031234;28;20029;-70
2024/01/24 14:44:32;;;;;;;14.55;8.90;;;;;;;9.17;74.57;99338.00;5032955;28;20091;-71
2024/01/24 14:46:57;;;;;;;13.10;9.20;;;;;;;8.93;78.01;99342.50;5026142;28;20368;-69
2024/01/24 14:49:25;;;;;;;12.82;8.88;;;;;;;8.62;84.39;99337.84;5031900;28;20033;-69
2024/01/24 14:51:53;;;;;;;15.80;10.18;;;;;;;8.44;89.27;99337.44;5030923;28;20128;-70
2024/01/24 14:54:18;;;;;;;17.60;12.60;;;;;;;8.47;86.65;99333.81;5023403;28;20140;-67
2024/01/24 14:56:46;;;;;;;12.70;8.45;;;;;;;8.52;81.53;99328.25;5031661;28;20577;-70
2024/01/24 14:59:11;;;;;;;13.02;8.70;;;;;;;8.55;79.90;99335.81;5042699;28;20022;-70
2024/01/24 15:01:39;;;;;;;14.13;9.10;;;;;;;8.54;79.67;99318.59;5008701;28;20036;-68
2024/01/24 15:04:07;;;;;;;12.13;8.95;;;;;;;8.56;80.69;99311.53;5014495;28;20025;-70
2024/01/24 15:06:35;;;;;;;13.23;9.27;;;;;;;8.56;81.52;99312.38;5008891;28;20090;-69
2024/01/24 15:09:00;;;;;;;13.82;9.13;;;;;;;8.51;79.88;99301.53;5029610;28;20036;-70
2024/01/24 15:11:28;;;;;;;12.45;8.80;;;;;;;8.52;79.32;99287.59;5026908;28;20514;-68
2024/01/24 15:13:56;;;;;;;13.77;8.82;;;;;;;8.43;81.93;99304.69;5031237;28;20039;-70
2024/01/24 15:16:21;;;;;;;14.07;9.70;;;;;;;8.37;86.18;99318.06;5015311;28;20087;-70
2024/01/24 15:18:47;;;;;;;14.65;9.43;;;;;;;8.03;89.25;99289.47;5028495;28;20618;-70
2024/01/24 15:21:14;;;;;;;13.20;8.15;;;;;;;7.93;87.84;99282.47;5029601;28;20029;-70
2024/01/24 15:23:41;;;;;;;13.23;8.27;;;;;;;8.23;84.12;99321.69;5028763;28;20043;-70
2024/01/24 15:26:09;;;;;;;11.57;7.93;;;;;;;8.24;82.91;99322.50;5052573;28;20052;-69
2024/01/24 15:28:36;;;;;;;13.25;7.30;;;;;;;8.23;84.55;99326.88;5032939;28;20143;-70
2024/01/24 15:31:03;;;;;;;14.95;7.97;;;;;;;7.90;84.39;99270.56;5041304;28;20037;-69
2024/01/24 15:33:31;;;;;;;12.77;8.38;;;;;;;8.15;82.97;99305.84;5031215;28;20053;-70
2024/01/24 15:35:57;;;;;;;11.82;7.13;;;;;;;8.11;82.93;99286.31;5060822;28;20056;-69
2024/01/24 15:38:23;;;;;;;10.93;7.78;;;;;;;7.93;84.15;99261.75;5066387;28;20208;-68
2024/01/24 15:40:48;;;;;;;14.57;8.25;;;;;;;7.76;85.26;99252.59;5027999;28;20093;-68
2024/01/24 15:43:14;;;;;;;11.15;7.05;;;;;;;8.06;84.47;99302.16;5030044;28;20037;-70
2024/01/24 15:45:39;;;;;;;13.07;7.75;;;;;;;7.99;86.04;99303.53;5032228;28;20529;-70
2024/01/24 15:48:05;;;;;;;11.75;8.18;;;;;;;7.93;86.96;99301.41;5029355;28;20041;-69
2024/01/24 15:50:30;;;;;;;12.00;8.10;;;;;;;7.91;87.03;99305.88;5001358;28;20040;-69
2024/01/24 15:52:58;;;;;;;13.70;8.30;;;;;;;7.83;87.82;99314.22;5001916;28;20572;-71
2024/01/24 15:55:24;;;;;;;15.05;9.40;;;;;;;7.87;87.21;99314.81;5000188;28;20078;-68
2024/01/24 15:57:51;;;;;;;15.05;8.77;;;;;;;7.85;87.91;99301.97;5005032;28;20025;-70
2024/01/24 16:00:17;;;;;;;11.68;8.07;;;;;;;7.75;87.58;99264.72;5029537;28;20212;-70
2024/01/24 16:02:42;;;;;;;12.07;8.20;;;;;;;7.85;87.98;99296.78;4999412;28;20492;-70
2024/01/24 16:05:19;;;;;;;14.15;8.45;;;;;;;7.81;87.61;99289.34;5014355;28;20386;-68
2024/01/24 16:07:47;;;;;;;13.77;8.48;;;;;;;7.66;88.47;99266.22;5025752;28;20029;-69
2024/01/24 16:10:12;;;;;;;12.13;8.52;;;;;;;7.68;88.79;99292.00;5005099;28;20040;-71
2024/01/24 16:12:40;;;;;;;12.43;8.65;;;;;;;7.65;88.91;99279.28;5017028;28;20026;-70
2024/01/24 16:15:09;;;;;;;13.38;8.95;;;;;;;7.57;88.66;99274.63;5013160;28;20498;-69
2024/01/24 16:17:34;;;;;;;16.83;9.40;;;;;;;7.50;90.08;99291.53;5015504;28;20037;-70
2024/01/24 16:20:02;;;;;;;15.70;9.57;;;;;;;7.30;91.11;99280.00;5018316;28;20067;-71
2024/01/24 16:22:33;;;;;;;14.15;9.65;;;;;;;7.39;91.12;99300.06;5014023;28;20030;-71
2024/01/24 16:25:00;;;;;;;16.13;9.95;;;;;;;7.29;91.46;99299.88;5010286;28;20017;-72
2024/01/24 16:27:26;;;;;;;13.88;9.05;;;;;;;7.25;93.69;99290.69;5011888;28;20794;-72
2024/01/24 16:29:55;;;;;;;12.57;8.18;;;;;;;7.13;95.35;99288.94;5042447;28;20513;-70
2024/01/24 16:32:23;;;;;;;16.67;9.07;;;;;;;7.16;94.19;99293.09;5003994;28;20124;-71
2024/01/24 16:34:51;;;;;;;14.00;9.90;;;;;;;7.08;94.45;99286.69;5011516;28;20033;-68
2024/01/24 16:37:16;;;;;;;15.13;9.65;;;;;;;7.04;94.75;99286.97;5004567;28;20088;-69
2024/01/24 16:39:42;;;;;;;17.90;11.10;;;;;;;7.07;94.61;99287.59;4993988;28;20037;-68
2024/01/24 16:42:07;;;;;;;20.13;11.65;;;;;;;6.98;94.35;99285.66;5020382;28;20968;-72
2024/01/24 16:44:35;;;;;;;19.00;12.27;;;;;;;6.81;93.22;99257.53;5015442;28;20221;-71
2024/01/24 16:47:01;;;;;;;25.88;14.32;;;;;;;7.04;92.66;99300.72;5018707;28;20017;-70
2024/01/24 16:49:28;;;;;;;21.58;13.90;;;;;;;6.90;92.92;99287.94;5015190;28;20394;-72
2024/01/24 16:51:56;;;;;;;20.45;12.68;;;;;;;6.84;94.01;99307.25;5011015;28;20037;-70
2024/01/24 16:54:21;;;;;;;20.52;13.30;;;;;;;6.64;94.99;99298.25;5011270;28;20038;-70
2024/01/24 16:56:49;;;;;;;25.23;15.73;;;;;;;6.80;93.63;99310.16;5021188;28;21000;-70
2024/01/24 16:59:15;;;;;;;20.48;14.68;;;;;;;6.66;93.15;99301.59;4993478;28;20423;-70
2024/01/24 17:01:40;;;;;;;24.05;16.00;;;;;;;6.59;93.87;99300.34;4998210;28;20128;-72
2024/01/24 17:04:06;;;;;;;22.27;15.13;;;;;;;6.18;94.36;99235.94;5029052;28;20060;-71
2024/01/24 17:06:32;;;;;;;26.33;16.08;;;;;;;6.34;94.97;99275.31;5020696;28;20017;-70
2024/01/24 17:08:57;;;;;;;29.17;16.90;;;;;;;6.48;94.14;99301.06;5003790;28;20040;-71
2024/01/24 17:11:25;;;;;;;27.88;16.98;;;;;;;6.45;93.83;99292.69;5015691;28;20064;-70
2024/01/24 17:13:54;;;;;;;24.88;15.98;;;;;;;6.41;93.97;99291.25;5012532;28;20041;-73
2024/01/24 17:16:19;;;;;;;24.45;15.10;;;;;;;6.08;94.24;99251.22;5017694;28;20370;-73
2024/01/24 17:18:47;;;;;;;22.85;13.90;;;;;;;6.26;94.70;99274.97;5011230;28;20041;-71
2024/01/24 17:21:13;;;;;;;21.25;14.93;;;;;;;6.27;93.44;99274.06;5010880;28;21161;-71
2024/01/24 17:23:41;;;;;;;22.73;15.38;;;;;;;6.34;92.50;99283.06;5045899;28;20034;-72
2024/01/24 17:26:06;;;;;;;24.58;16.33;;;;;;;6.26;92.29;99269.81;5009206;28;20092;-72
2024/01/24 17:28:31;;;;;;;24.95;15.02;;;;;;;6.32;92.51;99280.56;4989353;28;20503;-70
2024/01/24 17:30:57;;;;;;;22.73;14.85;;;;;;;6.37;92.25;99285.44;5006491;28;20028;-71
2024/01/24 17:33:22;;;;;;;25.10;16.83;;;;;;;6.03;93.31;99284.25;5013248;28;20040;-68
2024/01/24 17:35:48;;;;;;;27.67;19.15;;;;;;;6.10;92.56;99298.41;4993404;28;20078;-71
2024/01/24 17:38:13;;;;;;;23.13;16.63;;;;;;;6.01;91.20;99252.53;5031342;28;20083;-73
2024/01/24 17:40:41;;;;;;;23.45;15.52;;;;;;;6.23;91.52;99282.94;4990230;28;20120;-72
2024/01/24 17:43:06;;;;;;;27.23;15.20;;;;;;;5.82;91.18;99237.38;4999728;28;20032;-71
2024/01/24 17:45:34;;;;;;;22.70;14.23;;;;;;;6.02;91.77;99288.56;4993285;28;20034;-71
2024/01/24 17:48:02;;;;;;;21.17;14.30;;;;;;;6.06;91.94;99286.59;5009623;28;20029;-69
2024/01/24 17:50:27;;;;;;;24.15;15.65;;;;;;;5.91;92.34;99290.97;4992676;28;20375;-69
2024/01/24 17:52:55;;;;;;;23.70;15.65;;;;;;;5.89;92.25;99296.22;5017413;28;20629;-73
2024/01/24 17:55:20;;;;;;;24.63;15.30;;;;;;;5.98;93.02;99300.00;4998428;28;20029;-74
2024/01/24 17:57:48;;;;;;;25.05;15.68;;;;;;;5.84;93.48;99293.13;5001529;28;20115;-73
2024/01/24 18:00:14;;;;;;;25.23;14.45;;;;;;;5.83;92.62;99288.06;4982051;28;20101;-74
2024/01/24 18:02:42;;;;;;;23.60;14.10;;;;;;;5.83;91.98;99282.91;5014730;28;20032;-74
2024/01/24 18:05:08;;;;;;;22.33;13.52;;;;;;;5.92;91.73;99279.75;4998792;28;20558;-74
2024/01/24 18:07:35;;;;;;;22.05;13.93;;;;;;;5.67;91.67;99257.25;5000902;28;20147;-75
2024/01/24 18:10:01;;;;;;;25.75;15.70;;;;;;;5.85;91.60;99291.38;4983385;28;20025;-75
2024/01/24 18:12:27;;;;;;;23.08;13.57;;;;;;;5.46;92.26;99243.94;4985648;28;20026;-75
2024/01/24 18:14:52;;;;;;;19.33;13.30;;;;;;;5.59;92.57;99286.13;5020126;28;20030;-74
2024/01/24 18:17:20;;;;;;;22.50;13.07;;;;;;;5.36;92.44;99254.84;4981877;28;20032;-74
2024/01/24 18:19:46;;;;;;;25.52;14.00;;;;;;;5.74;91.63;99298.03;4998513;28;20033;-74
2024/01/24 18:22:12;;;;;;;22.25;12.98;;;;;;;5.80;90.63;99299.41;5005043;28;20057;-74
2024/01/24 18:24:37;;;;;;;18.98;13.05;;;;;;;5.65;90.96;99301.19;4987866;28;20060;-74
2024/01/24 18:27:03;;;;;;;20.40;12.30;;;;;;;5.39;91.15;99256.41;5006972;28;20063;-74
2024/01/24 18:29:28;;;;;;;23.25;11.85;;;;;;;5.66;90.95;99310.63;5001116;28;20144;-74
2024/01/24 18:31:59;;;;;;;22.02;12.32;;;;;;;5.26;91.84;99258.94;5007666;28;20805;-73